sensor_id;sensor_type;location;lat;lon;timestamp;temperature;humidity
17364;DHT22;8799;43.594;13.526;2023-02-19T00:01:52;17.80;99.90
17364;DHT22;8799;43.594;13.526;2023-02-19T00:04:22;17.80;99.90
17364;DHT22;8799;43.594;13.526;2023-02-19T00:07:07;17.80;99.90
17364;DHT22;8799;43.594;13.526;2023-02-19T00:09:35;17.80;99.90
17364;DHT22;8799;43.594;13.526;2023-02-19T00:12:03;17.80;99.90
17364;DHT22;8799;43.594;13.526;2023-02-19T00:14:31;17.70;99.90
17364;DHT22;8799;43.594;13.526;2023-02-19T00:16:59;17.70;99.90
17364;DHT22;8799;43.594;13.526;2023-02-19T00:19:28;17.70;99.90
17364;DHT22;8799;43.594;13.526;2023-02-19T00:21:56;17.70;99.90
17364;DHT22;8799;43.594;13.526;2023-02-19T00:24:23;17.70;99.90
17364;DHT22;8799;43.594;13.526;2023-02-19T00:26:51;17.70;99.90
17364;DHT22;8799;43.594;13.526;2023-02-19T00:29:20;17.70;99.90
17364;DHT22;8799;43.594;13.526;2023-02-19T00:31:49;17.70;99.90
17364;DHT22;8799;43.594;13.526;2023-02-19T00:34:17;17.70;99.90
17364;DHT22;8799;43.594;13.526;2023-02-19T00:36:47;17.70;99.90
17364;DHT22;8799;43.594;13.526;2023-02-19T00:39:15;17.70;99.90
17364;DHT22;8799;43.594;13.526;2023-02-19T00:41:43;17.70;99.90
17364;DHT22;8799;43.594;13.526;2023-02-19T00:44:11;17.70;99.90
17364;DHT22;8799;43.594;13.526;2023-02-19T00:46:41;17.70;99.90
17364;DHT22;8799;43.594;13.526;2023-02-19T00:49:14;17.70;99.90
17364;DHT22;8799;43.594;13.526;2023-02-19T00:51:42;17.70;99.90
17364;DHT22;8799;43.594;13.526;2023-02-19T00:54:12;17.70;99.90
17364;DHT22;8799;43.594;13.526;2023-02-19T00:56:39;17.70;99.90
17364;DHT22;8799;43.594;13.526;2023-02-19T00:59:07;17.70;99.90
17364;DHT22;8799;43.594;13.526;2023-02-19T01:01:35;17.70;99.90
17364;DHT22;8799;43.594;13.526;2023-02-19T01:04:03;17.70;99.90
17364;DHT22;8799;43.594;13.526;2023-02-19T01:06:31;17.70;99.90
17364;DHT22;8799;43.594;13.526;2023-02-19T01:08:59;17.70;99.90
17364;DHT22;8799;43.594;13.526;2023-02-19T01:11:29;17.70;99.90
17364;DHT22;8799;43.594;13.526;2023-02-19T01:13:58;17.70;99.90
17364;DHT22;8799;43.594;13.526;2023-02-19T01:16:26;17.70;99.90
17364;DHT22;8799;43.594;13.526;2023-02-19T01:18:56;17.70;99.90
17364;DHT22;8799;43.594;13.526;2023-02-19T01:21:25;17.70;99.90
17364;DHT22;8799;43.594;13.526;2023-02-19T01:23:54;17.70;99.90
17364;DHT22;8799;43.594;13.526;2023-02-19T01:26:23;17.70;99.90
17364;DHT22;8799;43.594;13.526;2023-02-19T01:28:52;17.70;99.90
17364;DHT22;8799;43.594;13.526;2023-02-19T01:31:21;17.70;99.90
17364;DHT22;8799;43.594;13.526;2023-02-19T01:33:51;17.70;99.90
17364;DHT22;8799;43.594;13.526;2023-02-19T01:36:20;17.70;99.90
17364;DHT22;8799;43.594;13.526;2023-02-19T01:38:48;17.70;99.90
17364;DHT22;8799;43.594;13.526;2023-02-19T01:41:18;17.70;99.90
17364;DHT22;8799;43.594;13.526;2023-02-19T01:43:58;17.70;99.90
17364;DHT22;8799;43.594;13.526;2023-02-19T01:46:27;17.70;99.90
17364;DHT22;8799;43.594;13.526;2023-02-19T01:48:57;17.70;99.90
17364;DHT22;8799;43.594;13.526;2023-02-19T01:51:27;17.70;99.90
17364;DHT22;8799;43.594;13.526;2023-02-19T01:53:58;17.70;99.90
17364;DHT22;8799;43.594;13.526;2023-02-19T01:56:30;17.70;99.90
17364;DHT22;8799;43.594;13.526;2023-02-19T01:59:01;17.70;99.90
17364;DHT22;8799;43.594;13.526;2023-02-19T02:01:29;17.70;99.90
17364;DHT22;8799;43.594;13.526;2023-02-19T02:03:57;17.70;99.90
17364;DHT22;8799;43.594;13.526;2023-02-19T02:06:28;17.70;99.90
17364;DHT22;8799;43.594;13.526;2023-02-19T02:08:58;17.70;99.90
17364;DHT22;8799;43.594;13.526;2023-02-19T02:11:46;17.70;99.90
17364;DHT22;8799;43.594;13.526;2023-02-19T02:14:17;17.70;99.90
17364;DHT22;8799;43.594;13.526;2023-02-19T02:16:54;17.70;99.90
17364;DHT22;8799;43.594;13.526;2023-02-19T02:19:37;17.70;99.90
17364;DHT22;8799;43.594;13.526;2023-02-19T02:22:15;17.70;99.90
17364;DHT22;8799;43.594;13.526;2023-02-19T02:24:58;17.70;99.90
17364;DHT22;8799;43.594;13.526;2023-02-19T02:27:40;17.70;99.90
17364;DHT22;8799;43.594;13.526;2023-02-19T02:30:30;17.70;99.90
17364;DHT22;8799;43.594;13.526;2023-02-19T02:33:03;17.60;99.90
17364;DHT22;8799;43.594;13.526;2023-02-19T02:35:36;17.60;99.90
17364;DHT22;8799;43.594;13.526;2023-02-19T02:38:07;17.60;99.90
17364;DHT22;8799;43.594;13.526;2023-02-19T02:40:40;17.60;99.90
17364;DHT22;8799;43.594;13.526;2023-02-19T02:43:09;17.60;99.90
17364;DHT22;8799;43.594;13.526;2023-02-19T02:45:38;17.60;99.90
17364;DHT22;8799;43.594;13.526;2023-02-19T02:48:13;17.60;99.90
17364;DHT22;8799;43.594;13.526;2023-02-19T02:50:45;17.60;99.90
17364;DHT22;8799;43.594;13.526;2023-02-19T02:53:19;17.60;99.90
17364;DHT22;8799;43.594;13.526;2023-02-19T02:56:05;17.60;99.90
17364;DHT22;8799;43.594;13.526;2023-02-19T02:58:33;17.60;99.90
17364;DHT22;8799;43.594;13.526;2023-02-19T03:01:06;17.50;99.90
17364;DHT22;8799;43.594;13.526;2023-02-19T03:03:55;17.50;99.90
17364;DHT22;8799;43.594;13.526;2023-02-19T03:06:27;17.50;99.90
17364;DHT22;8799;43.594;13.526;2023-02-19T03:08:58;17.50;99.90
17364;DHT22;8799;43.594;13.526;2023-02-19T03:11:30;17.50;99.90
17364;DHT22;8799;43.594;13.526;2023-02-19T03:14:17;17.50;99.90
17364;DHT22;8799;43.594;13.526;2023-02-19T03:17:07;17.50;99.90
17364;DHT22;8799;43.594;13.526;2023-02-19T03:19:55;17.50;99.90
17364;DHT22;8799;43.594;13.526;2023-02-19T03:22:28;17.50;99.90
17364;DHT22;8799;43.594;13.526;2023-02-19T03:25:00;17.50;99.90
17364;DHT22;8799;43.594;13.526;2023-02-19T03:27:48;17.50;99.90
17364;DHT22;8799;43.594;13.526;2023-02-19T03:30:18;17.40;99.90
17364;DHT22;8799;43.594;13.526;2023-02-19T03:32:52;17.50;99.90
17364;DHT22;8799;43.594;13.526;2023-02-19T03:35:23;17.50;99.90
17364;DHT22;8799;43.594;13.526;2023-02-19T03:37:56;17.50;99.90
17364;DHT22;8799;43.594;13.526;2023-02-19T03:40:28;17.50;99.90
17364;DHT22;8799;43.594;13.526;2023-02-19T03:43:02;17.40;99.90
17364;DHT22;8799;43.594;13.526;2023-02-19T03:45:37;17.40;99.90
17364;DHT22;8799;43.594;13.526;2023-02-19T03:48:28;17.50;99.90
17364;DHT22;8799;43.594;13.526;2023-02-19T03:51:16;17.40;99.90
17364;DHT22;8799;43.594;13.526;2023-02-19T03:53:52;17.40;99.90
17364;DHT22;8799;43.594;13.526;2023-02-19T03:56:27;17.40;99.90
17364;DHT22;8799;43.594;13.526;2023-02-19T03:59:01;17.40;99.90
17364;DHT22;8799;43.594;13.526;2023-02-19T04:01:36;17.40;99.90
17364;DHT22;8799;43.594;13.526;2023-02-19T04:04:10;17.40;99.90
17364;DHT22;8799;43.594;13.526;2023-02-19T04:06:41;17.40;99.90
17364;DHT22;8799;43.594;13.526;2023-02-19T04:09:13;17.40;99.90
17364;DHT22;8799;43.594;13.526;2023-02-19T04:11:43;17.40;99.90
17364;DHT22;8799;43.594;13.526;2023-02-19T04:14:14;17.30;99.90
17364;DHT22;8799;43.594;13.526;2023-02-19T04:16:47;17.40;99.90
17364;DHT22;8799;43.594;13.526;2023-02-19T04:19:19;17.30;99.90
17364;DHT22;8799;43.594;13.526;2023-02-19T04:21:48;17.30;99.90
17364;DHT22;8799;43.594;13.526;2023-02-19T04:24:21;17.30;99.90
17364;DHT22;8799;43.594;13.526;2023-02-19T04:26:51;17.40;99.90
17364;DHT22;8799;43.594;13.526;2023-02-19T04:29:20;17.30;99.90
17364;DHT22;8799;43.594;13.526;2023-02-19T04:31:47;17.40;99.90
17364;DHT22;8799;43.594;13.526;2023-02-19T04:34:17;17.30;99.90
17364;DHT22;8799;43.594;13.526;2023-02-19T04:36:45;17.30;99.90
17364;DHT22;8799;43.594;13.526;2023-02-19T04:39:13;17.30;99.90
17364;DHT22;8799;43.594;13.526;2023-02-19T04:41:41;17.30;99.90
17364;DHT22;8799;43.594;13.526;2023-02-19T04:44:09;17.30;99.90
17364;DHT22;8799;43.594;13.526;2023-02-19T04:46:38;17.30;99.90
17364;DHT22;8799;43.594;13.526;2023-02-19T04:49:06;17.30;99.90
17364;DHT22;8799;43.594;13.526;2023-02-19T04:51:36;17.30;99.90
17364;DHT22;8799;43.594;13.526;2023-02-19T04:54:04;17.20;99.90
17364;DHT22;8799;43.594;13.526;2023-02-19T04:56:33;17.20;99.90
17364;DHT22;8799;43.594;13.526;2023-02-19T04:59:01;17.20;99.90
17364;DHT22;8799;43.594;13.526;2023-02-19T05:01:29;17.30;99.90
17364;DHT22;8799;43.594;13.526;2023-02-19T05:03:57;17.20;99.90
17364;DHT22;8799;43.594;13.526;2023-02-19T05:06:25;17.20;99.90
17364;DHT22;8799;43.594;13.526;2023-02-19T05:08:54;17.20;99.90
17364;DHT22;8799;43.594;13.526;2023-02-19T05:11:22;17.20;99.90
17364;DHT22;8799;43.594;13.526;2023-02-19T05:13:50;17.20;99.90
17364;DHT22;8799;43.594;13.526;2023-02-19T05:16:22;17.20;99.90
17364;DHT22;8799;43.594;13.526;2023-02-19T05:18:50;17.20;99.90
17364;DHT22;8799;43.594;13.526;2023-02-19T05:21:18;17.20;99.90
17364;DHT22;8799;43.594;13.526;2023-02-19T05:23:46;17.20;99.90
17364;DHT22;8799;43.594;13.526;2023-02-19T05:26:17;17.20;99.90
17364;DHT22;8799;43.594;13.526;2023-02-19T05:28:45;17.20;99.90
17364;DHT22;8799;43.594;13.526;2023-02-19T05:31:14;17.20;99.90
17364;DHT22;8799;43.594;13.526;2023-02-19T05:33:42;17.10;99.90
17364;DHT22;8799;43.594;13.526;2023-02-19T05:36:13;17.10;99.90
17364;DHT22;8799;43.594;13.526;2023-02-19T05:38:40;17.10;99.90
17364;DHT22;8799;43.594;13.526;2023-02-19T05:41:11;17.10;99.90
17364;DHT22;8799;43.594;13.526;2023-02-19T05:43:42;17.10;99.90
17364;DHT22;8799;43.594;13.526;2023-02-19T05:46:11;17.10;99.90
17364;DHT22;8799;43.594;13.526;2023-02-19T05:48:40;17.10;99.90
17364;DHT22;8799;43.594;13.526;2023-02-19T05:51:09;17.10;99.90
17364;DHT22;8799;43.594;13.526;2023-02-19T05:53:38;17.10;99.90
17364;DHT22;8799;43.594;13.526;2023-02-19T05:56:26;17.10;99.90
17364;DHT22;8799;43.594;13.526;2023-02-19T05:58:56;17.10;99.90
17364;DHT22;8799;43.594;13.526;2023-02-19T06:01:26;17.10;99.90
17364;DHT22;8799;43.594;13.526;2023-02-19T06:03:54;17.10;99.90
17364;DHT22;8799;43.594;13.526;2023-02-19T06:06:23;17.10;99.90
17364;DHT22;8799;43.594;13.526;2023-02-19T06:08:52;17.10;99.90
17364;DHT22;8799;43.594;13.526;2023-02-19T06:11:20;17.00;99.90
17364;DHT22;8799;43.594;13.526;2023-02-19T06:13:48;17.00;99.90
17364;DHT22;8799;43.594;13.526;2023-02-19T06:16:18;17.00;99.90
17364;DHT22;8799;43.594;13.526;2023-02-19T06:18:47;17.00;99.90
17364;DHT22;8799;43.594;13.526;2023-02-19T06:21:16;17.10;99.90
17364;DHT22;8799;43.594;13.526;2023-02-19T06:23:43;17.00;99.90
17364;DHT22;8799;43.594;13.526;2023-02-19T06:26:13;17.00;99.90
17364;DHT22;8799;43.594;13.526;2023-02-19T06:28:42;17.00;99.90
17364;DHT22;8799;43.594;13.526;2023-02-19T06:31:11;17.00;99.90
17364;DHT22;8799;43.594;13.526;2023-02-19T06:33:41;17.00;99.90
17364;DHT22;8799;43.594;13.526;2023-02-19T06:36:11;17.00;99.90
17364;DHT22;8799;43.594;13.526;2023-02-19T06:38:40;17.00;99.90
17364;DHT22;8799;43.594;13.526;2023-02-19T06:41:08;17.00;99.90
17364;DHT22;8799;43.594;13.526;2023-02-19T06:43:36;17.00;99.90
17364;DHT22;8799;43.594;13.526;2023-02-19T06:46:05;17.00;99.90
17364;DHT22;8799;43.594;13.526;2023-02-19T06:48:34;16.90;99.90
17364;DHT22;8799;43.594;13.526;2023-02-19T06:51:04;17.00;99.90
17364;DHT22;8799;43.594;13.526;2023-02-19T06:53:32;17.00;99.90
17364;DHT22;8799;43.594;13.526;2023-02-19T06:56:02;17.00;99.90
17364;DHT22;8799;43.594;13.526;2023-02-19T06:58:31;16.90;99.90
17364;DHT22;8799;43.594;13.526;2023-02-19T07:00:59;16.90;99.90
17364;DHT22;8799;43.594;13.526;2023-02-19T07:03:27;16.90;99.90
17364;DHT22;8799;43.594;13.526;2023-02-19T07:05:58;16.90;99.90
17364;DHT22;8799;43.594;13.526;2023-02-19T07:08:27;16.90;99.90
17364;DHT22;8799;43.594;13.526;2023-02-19T07:10:56;16.90;99.90
17364;DHT22;8799;43.594;13.526;2023-02-19T07:13:25;16.90;99.90
17364;DHT22;8799;43.594;13.526;2023-02-19T07:15:57;17.00;99.90
17364;DHT22;8799;43.594;13.526;2023-02-19T07:18:26;16.90;99.90
17364;DHT22;8799;43.594;13.526;2023-02-19T07:20:54;16.90;99.90
17364;DHT22;8799;43.594;13.526;2023-02-19T07:23:22;16.90;99.90
17364;DHT22;8799;43.594;13.526;2023-02-19T07:25:51;16.90;99.90
17364;DHT22;8799;43.594;13.526;2023-02-19T07:28:19;16.90;99.90
17364;DHT22;8799;43.594;13.526;2023-02-19T07:30:48;16.90;99.90
17364;DHT22;8799;43.594;13.526;2023-02-19T07:33:16;16.90;99.90
17364;DHT22;8799;43.594;13.526;2023-02-19T07:35:45;18.30;99.90
17364;DHT22;8799;43.594;13.526;2023-02-19T07:38:14;16.90;99.90
17364;DHT22;8799;43.594;13.526;2023-02-19T07:40:51;16.90;99.90
17364;DHT22;8799;43.594;13.526;2023-02-19T07:43:24;16.90;99.90
17364;DHT22;8799;43.594;13.526;2023-02-19T07:45:52;16.90;99.90
17364;DHT22;8799;43.594;13.526;2023-02-19T07:48:20;16.90;99.90
17364;DHT22;8799;43.594;13.526;2023-02-19T07:50:57;16.90;99.90
17364;DHT22;8799;43.594;13.526;2023-02-19T07:53:52;16.90;99.90
17364;DHT22;8799;43.594;13.526;2023-02-19T07:56:22;18.60;99.90
17364;DHT22;8799;43.594;13.526;2023-02-19T07:58:50;16.90;99.90
17364;DHT22;8799;43.594;13.526;2023-02-19T08:01:22;16.90;99.90
17364;DHT22;8799;43.594;13.526;2023-02-19T08:04:14;16.90;99.90
17364;DHT22;8799;43.594;13.526;2023-02-19T08:06:40;16.90;99.90
17364;DHT22;8799;43.594;13.526;2023-02-19T08:09:08;16.90;99.90
17364;DHT22;8799;43.594;13.526;2023-02-19T08:11:38;16.90;99.70
17364;DHT22;8799;43.594;13.526;2023-02-19T08:14:24;16.90;99.90
17364;DHT22;8799;43.594;13.526;2023-02-19T08:16:52;16.90;99.90
17364;DHT22;8799;43.594;13.526;2023-02-19T08:19:21;17.00;99.90
17364;DHT22;8799;43.594;13.526;2023-02-19T08:21:49;17.00;99.90
17364;DHT22;8799;43.594;13.526;2023-02-19T08:26:55;17.00;99.90
17364;DHT22;8799;43.594;13.526;2023-02-19T08:29:23;17.00;99.90
17364;DHT22;8799;43.594;13.526;2023-02-19T08:31:52;17.00;99.90
17364;DHT22;8799;43.594;13.526;2023-02-19T08:34:20;17.10;99.90
17364;DHT22;8799;43.594;13.526;2023-02-19T08:36:53;17.10;99.90
17364;DHT22;8799;43.594;13.526;2023-02-19T08:39:21;17.10;99.90
17364;DHT22;8799;43.594;13.526;2023-02-19T08:41:49;17.10;99.90
17364;DHT22;8799;43.594;13.526;2023-02-19T08:44:19;17.20;99.90
17364;DHT22;8799;43.594;13.526;2023-02-19T08:46:47;17.20;99.90
17364;DHT22;8799;43.594;13.526;2023-02-19T08:49:15;17.20;99.90
17364;DHT22;8799;43.594;13.526;2023-02-19T08:51:43;17.20;99.90
17364;DHT22;8799;43.594;13.526;2023-02-19T08:54:11;17.20;99.90
17364;DHT22;8799;43.594;13.526;2023-02-19T08:56:39;17.20;99.90
17364;DHT22;8799;43.594;13.526;2023-02-19T08:59:07;17.20;99.90
17364;DHT22;8799;43.594;13.526;2023-02-19T09:01:36;17.30;99.90
17364;DHT22;8799;43.594;13.526;2023-02-19T09:04:04;17.30;99.90
17364;DHT22;8799;43.594;13.526;2023-02-19T09:06:32;17.20;99.90
17364;DHT22;8799;43.594;13.526;2023-02-19T09:09:00;17.20;99.90
17364;DHT22;8799;43.594;13.526;2023-02-19T09:11:28;17.30;99.90
17364;DHT22;8799;43.594;13.526;2023-02-19T09:13:56;17.30;99.90
17364;DHT22;8799;43.594;13.526;2023-02-19T09:16:24;17.30;99.90
17364;DHT22;8799;43.594;13.526;2023-02-19T09:18:53;17.30;99.90
17364;DHT22;8799;43.594;13.526;2023-02-19T09:21:25;17.20;99.90
17364;DHT22;8799;43.594;13.526;2023-02-19T09:23:54;17.40;99.90
17364;DHT22;8799;43.594;13.526;2023-02-19T09:26:22;17.20;99.90
17364;DHT22;8799;43.594;13.526;2023-02-19T09:28:50;17.30;99.90
17364;DHT22;8799;43.594;13.526;2023-02-19T09:31:17;17.30;99.90
17364;DHT22;8799;43.594;13.526;2023-02-19T09:33:47;17.20;99.90
17364;DHT22;8799;43.594;13.526;2023-02-19T09:36:17;17.30;99.90
17364;DHT22;8799;43.594;13.526;2023-02-19T09:38:45;17.20;99.90
17364;DHT22;8799;43.594;13.526;2023-02-19T09:41:28;17.30;99.90
17364;DHT22;8799;43.594;13.526;2023-02-19T09:43:57;17.30;99.90
17364;DHT22;8799;43.594;13.526;2023-02-19T09:46:30;17.30;99.90
17364;DHT22;8799;43.594;13.526;2023-02-19T09:49:03;17.30;99.90
17364;DHT22;8799;43.594;13.526;2023-02-19T09:51:35;17.30;99.90
17364;DHT22;8799;43.594;13.526;2023-02-19T09:54:06;17.30;99.90
17364;DHT22;8799;43.594;13.526;2023-02-19T09:56:37;17.30;99.90
17364;DHT22;8799;43.594;13.526;2023-02-19T09:59:05;17.30;99.90
17364;DHT22;8799;43.594;13.526;2023-02-19T10:01:38;17.30;99.90
17364;DHT22;8799;43.594;13.526;2023-02-19T10:04:08;17.30;99.90
17364;DHT22;8799;43.594;13.526;2023-02-19T10:06:39;17.30;99.90
17364;DHT22;8799;43.594;13.526;2023-02-19T10:09:20;17.30;99.90
17364;DHT22;8799;43.594;13.526;2023-02-19T10:11:48;17.30;99.90
17364;DHT22;8799;43.594;13.526;2023-02-19T10:14:19;17.30;99.90
17364;DHT22;8799;43.594;13.526;2023-02-19T10:16:51;17.30;99.90
17364;DHT22;8799;43.594;13.526;2023-02-19T10:19:19;17.30;99.90
17364;DHT22;8799;43.594;13.526;2023-02-19T10:21:49;17.30;99.90
17364;DHT22;8799;43.594;13.526;2023-02-19T10:24:21;17.30;99.90
17364;DHT22;8799;43.594;13.526;2023-02-19T10:26:52;17.30;99.90
17364;DHT22;8799;43.594;13.526;2023-02-19T10:29:22;17.30;99.90
17364;DHT22;8799;43.594;13.526;2023-02-19T10:32:13;17.30;99.90
17364;DHT22;8799;43.594;13.526;2023-02-19T10:34:42;17.30;99.90
17364;DHT22;8799;43.594;13.526;2023-02-19T10:37:14;17.30;99.90
17364;DHT22;8799;43.594;13.526;2023-02-19T10:39:44;17.30;99.90
17364;DHT22;8799;43.594;13.526;2023-02-19T10:42:18;17.30;99.90
17364;DHT22;8799;43.594;13.526;2023-02-19T10:44:50;17.30;99.90
17364;DHT22;8799;43.594;13.526;2023-02-19T10:47:21;17.30;99.90
17364;DHT22;8799;43.594;13.526;2023-02-19T10:49:51;17.30;99.90
17364;DHT22;8799;43.594;13.526;2023-02-19T10:52:24;17.30;99.90
17364;DHT22;8799;43.594;13.526;2023-02-19T10:54:55;17.30;99.90
17364;DHT22;8799;43.594;13.526;2023-02-19T10:57:27;17.30;99.90
17364;DHT22;8799;43.594;13.526;2023-02-19T11:00:01;17.30;99.90
17364;DHT22;8799;43.594;13.526;2023-02-19T11:02:29;17.30;99.90
17364;DHT22;8799;43.594;13.526;2023-02-19T11:05:04;17.30;99.90
17364;DHT22;8799;43.594;13.526;2023-02-19T11:07:35;17.20;99.90
17364;DHT22;8799;43.594;13.526;2023-02-19T11:10:04;17.30;99.90
17364;DHT22;8799;43.594;13.526;2023-02-19T11:12:34;17.30;99.90
17364;DHT22;8799;43.594;13.526;2023-02-19T11:15:18;17.30;99.90
17364;DHT22;8799;43.594;13.526;2023-02-19T11:17:53;17.30;99.90
17364;DHT22;8799;43.594;13.526;2023-02-19T11:20:22;17.30;99.90
17364;DHT22;8799;43.594;13.526;2023-02-19T11:22:57;17.20;99.90
17364;DHT22;8799;43.594;13.526;2023-02-19T11:25:27;17.20;99.90
17364;DHT22;8799;43.594;13.526;2023-02-19T11:27:59;17.20;99.90
17364;DHT22;8799;43.594;13.526;2023-02-19T11:30:35;17.20;99.90
17364;DHT22;8799;43.594;13.526;2023-02-19T11:33:24;17.20;99.90
17364;DHT22;8799;43.594;13.526;2023-02-19T11:35:59;17.20;99.90
17364;DHT22;8799;43.594;13.526;2023-02-19T11:38:45;17.20;99.90
17364;DHT22;8799;43.594;13.526;2023-02-19T11:41:21;17.10;99.90
17364;DHT22;8799;43.594;13.526;2023-02-19T11:44:00;17.10;99.90
17364;DHT22;8799;43.594;13.526;2023-02-19T11:46:36;17.10;99.90
17364;DHT22;8799;43.594;13.526;2023-02-19T11:49:19;17.10;99.90
17364;DHT22;8799;43.594;13.526;2023-02-19T11:52:10;17.10;99.90
17364;DHT22;8799;43.594;13.526;2023-02-19T11:54:54;17.10;99.90
17364;DHT22;8799;43.594;13.526;2023-02-19T11:57:37;17.10;99.90
17364;DHT22;8799;43.594;13.526;2023-02-19T12:00:24;17.10;99.90
17364;DHT22;8799;43.594;13.526;2023-02-19T12:03:08;17.10;99.90
17364;DHT22;8799;43.594;13.526;2023-02-19T12:12:28;17.10;99.90
17364;DHT22;8799;43.594;13.526;2023-02-19T12:15:21;17.00;99.90
17364;DHT22;8799;43.594;13.526;2023-02-19T12:18:21;17.00;99.90
17364;DHT22;8799;43.594;13.526;2023-02-19T12:20:59;17.00;99.90
17364;DHT22;8799;43.594;13.526;2023-02-19T12:23:40;17.00;99.90
17364;DHT22;8799;43.594;13.526;2023-02-19T12:26:20;17.00;99.90
17364;DHT22;8799;43.594;13.526;2023-02-19T12:32:15;17.00;99.90
17364;DHT22;8799;43.594;13.526;2023-02-19T12:37:49;17.00;99.90
17364;DHT22;8799;43.594;13.526;2023-02-19T12:40:33;17.00;99.90
17364;DHT22;8799;43.594;13.526;2023-02-19T12:43:10;17.00;99.90
17364;DHT22;8799;43.594;13.526;2023-02-19T12:45:45;17.00;99.90
17364;DHT22;8799;43.594;13.526;2023-02-19T12:48:20;17.00;99.90
17364;DHT22;8799;43.594;13.526;2023-02-19T12:50:56;17.00;99.90
17364;DHT22;8799;43.594;13.526;2023-02-19T12:53:39;17.00;99.90
17364;DHT22;8799;43.594;13.526;2023-02-19T12:56:13;16.90;99.90
17364;DHT22;8799;43.594;13.526;2023-02-19T12:58:47;16.90;99.90
17364;DHT22;8799;43.594;13.526;2023-02-19T13:01:19;16.90;99.90
17364;DHT22;8799;43.594;13.526;2023-02-19T13:03:52;16.90;99.90
17364;DHT22;8799;43.594;13.526;2023-02-19T13:06:29;16.90;99.90
17364;DHT22;8799;43.594;13.526;2023-02-19T13:09:02;16.90;99.90
17364;DHT22;8799;43.594;13.526;2023-02-19T13:11:37;16.90;99.90
17364;DHT22;8799;43.594;13.526;2023-02-19T13:14:14;16.90;99.90
17364;DHT22;8799;43.594;13.526;2023-02-19T13:16:48;16.90;99.90
17364;DHT22;8799;43.594;13.526;2023-02-19T13:19:17;16.90;99.90
17364;DHT22;8799;43.594;13.526;2023-02-19T13:21:49;16.90;99.90
17364;DHT22;8799;43.594;13.526;2023-02-19T13:24:39;16.90;99.90
17364;DHT22;8799;43.594;13.526;2023-02-19T13:27:35;16.90;99.90
17364;DHT22;8799;43.594;13.526;2023-02-19T13:30:20;16.90;99.90
17364;DHT22;8799;43.594;13.526;2023-02-19T13:33:00;16.90;99.90
17364;DHT22;8799;43.594;13.526;2023-02-19T13:36:13;16.90;99.90
17364;DHT22;8799;43.594;13.526;2023-02-19T13:38:46;16.90;99.90
17364;DHT22;8799;43.594;13.526;2023-02-19T13:41:18;16.90;99.90
17364;DHT22;8799;43.594;13.526;2023-02-19T13:43:54;16.90;99.90
17364;DHT22;8799;43.594;13.526;2023-02-19T13:46:23;16.90;99.90
17364;DHT22;8799;43.594;13.526;2023-02-19T13:52:42;16.80;99.90
17364;DHT22;8799;43.594;13.526;2023-02-19T13:55:46;16.80;99.90
17364;DHT22;8799;43.594;13.526;2023-02-19T13:58:34;16.90;99.90
17364;DHT22;8799;43.594;13.526;2023-02-19T14:01:04;16.80;99.90
17364;DHT22;8799;43.594;13.526;2023-02-19T14:03:44;16.80;99.90
17364;DHT22;8799;43.594;13.526;2023-02-19T14:06:13;16.80;99.90
17364;DHT22;8799;43.594;13.526;2023-02-19T14:08:53;16.80;99.90
17364;DHT22;8799;43.594;13.526;2023-02-19T14:12:03;16.80;99.90
17364;DHT22;8799;43.594;13.526;2023-02-19T14:14:34;16.80;99.90
17364;DHT22;8799;43.594;13.526;2023-02-19T14:17:26;16.80;99.90
17364;DHT22;8799;43.594;13.526;2023-02-19T14:19:57;16.80;99.90
17364;DHT22;8799;43.594;13.526;2023-02-19T14:25:55;16.80;99.90
17364;DHT22;8799;43.594;13.526;2023-02-19T14:28:35;16.80;99.90
17364;DHT22;8799;43.594;13.526;2023-02-19T14:31:16;16.80;99.90
17364;DHT22;8799;43.594;13.526;2023-02-19T14:33:47;16.10;99.90
17364;DHT22;8799;43.594;13.526;2023-02-19T14:36:27;16.80;99.90
17364;DHT22;8799;43.594;13.526;2023-02-19T14:38:57;16.80;99.90
17364;DHT22;8799;43.594;13.526;2023-02-19T14:41:31;16.80;99.90
17364;DHT22;8799;43.594;13.526;2023-02-19T14:44:01;16.80;99.90
17364;DHT22;8799;43.594;13.526;2023-02-19T14:46:30;16.80;99.90
17364;DHT22;8799;43.594;13.526;2023-02-19T14:49:04;16.80;99.90
17364;DHT22;8799;43.594;13.526;2023-02-19T14:51:37;16.80;99.90
17364;DHT22;8799;43.594;13.526;2023-02-19T14:54:12;16.80;99.90
17364;DHT22;8799;43.594;13.526;2023-02-19T14:56:44;16.80;99.90
17364;DHT22;8799;43.594;13.526;2023-02-19T14:59:22;16.80;99.90
17364;DHT22;8799;43.594;13.526;2023-02-19T15:01:56;16.80;99.90
17364;DHT22;8799;43.594;13.526;2023-02-19T15:04:25;16.80;99.90
17364;DHT22;8799;43.594;13.526;2023-02-19T15:06:55;16.80;99.90
17364;DHT22;8799;43.594;13.526;2023-02-19T15:09:29;16.80;99.90
17364;DHT22;8799;43.594;13.526;2023-02-19T15:11:59;16.80;99.90
17364;DHT22;8799;43.594;13.526;2023-02-19T15:14:29;16.80;99.90
17364;DHT22;8799;43.594;13.526;2023-02-19T15:17:01;16.70;99.90
17364;DHT22;8799;43.594;13.526;2023-02-19T15:19:32;16.80;99.90
17364;DHT22;8799;43.594;13.526;2023-02-19T15:22:04;16.80;99.90
17364;DHT22;8799;43.594;13.526;2023-02-19T15:24:32;16.80;99.90
17364;DHT22;8799;43.594;13.526;2023-02-19T15:27:03;16.80;99.90
17364;DHT22;8799;43.594;13.526;2023-02-19T15:29:31;16.80;99.90
17364;DHT22;8799;43.594;13.526;2023-02-19T15:32:00;16.80;99.90
17364;DHT22;8799;43.594;13.526;2023-02-19T15:34:30;16.80;99.90
17364;DHT22;8799;43.594;13.526;2023-02-19T15:36:59;16.80;99.90
17364;DHT22;8799;43.594;13.526;2023-02-19T15:39:32;16.80;99.90
17364;DHT22;8799;43.594;13.526;2023-02-19T15:42:04;16.80;99.90
17364;DHT22;8799;43.594;13.526;2023-02-19T15:44:42;16.80;99.90
17364;DHT22;8799;43.594;13.526;2023-02-19T15:47:19;16.80;99.90
17364;DHT22;8799;43.594;13.526;2023-02-19T15:49:52;16.80;99.90
17364;DHT22;8799;43.594;13.526;2023-02-19T15:52:28;16.80;99.90
17364;DHT22;8799;43.594;13.526;2023-02-19T15:55:04;16.80;99.90
17364;DHT22;8799;43.594;13.526;2023-02-19T15:57:41;16.80;99.90
17364;DHT22;8799;43.594;13.526;2023-02-19T16:00:13;16.80;99.90
17364;DHT22;8799;43.594;13.526;2023-02-19T16:02:44;16.90;99.90
17364;DHT22;8799;43.594;13.526;2023-02-19T16:05:15;16.90;99.90
17364;DHT22;8799;43.594;13.526;2023-02-19T16:08:05;16.90;99.90
17364;DHT22;8799;43.594;13.526;2023-02-19T16:10:33;16.90;99.90
17364;DHT22;8799;43.594;13.526;2023-02-19T16:13:04;16.90;99.90
17364;DHT22;8799;43.594;13.526;2023-02-19T16:15:33;16.90;99.90
17364;DHT22;8799;43.594;13.526;2023-02-19T16:18:01;16.90;99.90
17364;DHT22;8799;43.594;13.526;2023-02-19T16:20:31;16.90;99.90
17364;DHT22;8799;43.594;13.526;2023-02-19T16:23:02;17.00;99.90
17364;DHT22;8799;43.594;13.526;2023-02-19T16:25:37;17.00;99.90
17364;DHT22;8799;43.594;13.526;2023-02-19T16:28:12;17.00;99.90